sensor_id;sensor_type;location;lat;lon;timestamp;P1;durP1;ratioP1;P2;durP2;ratioP2
46116;SDS011;32591;48.102;11.772;2022-12-22T00:00:13;3.10;;;1.83;;
46116;SDS011;32591;48.102;11.772;2022-12-22T00:02:58;3.45;;;1.75;;
46116;SDS011;32591;48.102;11.772;2022-12-22T00:05:43;2.92;;;1.30;;
46116;SDS011;32591;48.102;11.772;2022-12-22T00:08:27;2.95;;;1.60;;
46116;SDS011;32591;48.102;11.772;2022-12-22T00:11:12;2.13;;;1.05;;
46116;SDS011;32591;48.102;11.772;2022-12-22T00:13:58;2.67;;;1.55;;
46116;SDS011;32591;48.102;11.772;2022-12-22T00:16:43;1.60;;;1.33;;
46116;SDS011;32591;48.102;11.772;2022-12-22T00:19:28;2.72;;;1.55;;
46116;SDS011;32591;48.102;11.772;2022-12-22T00:22:14;1.90;;;1.40;;
46116;SDS011;32591;48.102;11.772;2022-12-22T00:25:04;2.60;;;1.73;;
46116;SDS011;32591;48.102;11.772;2022-12-22T00:27:49;3.08;;;1.83;;
46116;SDS011;32591;48.102;11.772;2022-12-22T00:30:35;2.05;;;1.30;;
46116;SDS011;32591;48.102;11.772;2022-12-22T00:33:20;2.80;;;1.52;;
46116;SDS011;32591;48.102;11.772;2022-12-22T00:36:06;2.47;;;1.30;;
46116;SDS011;32591;48.102;11.772;2022-12-22T00:38:53;3.50;;;1.30;;
46116;SDS011;32591;48.102;11.772;2022-12-22T00:41:38;2.63;;;1.30;;
46116;SDS011;32591;48.102;11.772;2022-12-22T00:44:22;3.33;;;1.88;;
46116;SDS011;32591;48.102;11.772;2022-12-22T00:47:09;2.33;;;1.60;;
46116;SDS011;32591;48.102;11.772;2022-12-22T00:49:57;2.20;;;1.70;;
46116;SDS011;32591;48.102;11.772;2022-12-22T00:52:41;2.03;;;1.27;;
46116;SDS011;32591;48.102;11.772;2022-12-22T00:55:28;1.88;;;1.38;;
46116;SDS011;32591;48.102;11.772;2022-12-22T00:58:15;3.00;;;1.40;;
46116;SDS011;32591;48.102;11.772;2022-12-22T01:01:03;4.13;;;1.77;;
46116;SDS011;32591;48.102;11.772;2022-12-22T01:03:49;2.38;;;1.50;;
46116;SDS011;32591;48.102;11.772;2022-12-22T01:06:33;2.55;;;1.45;;
46116;SDS011;32591;48.102;11.772;2022-12-22T01:09:19;3.42;;;1.58;;
46116;SDS011;32591;48.102;11.772;2022-12-22T01:12:05;2.33;;;1.20;;
46116;SDS011;32591;48.102;11.772;2022-12-22T01:14:55;1.88;;;1.38;;
46116;SDS011;32591;48.102;11.772;2022-12-22T01:17:40;3.50;;;1.27;;
46116;SDS011;32591;48.102;11.772;2022-12-22T01:20:26;3.13;;;1.50;;
46116;SDS011;32591;48.102;11.772;2022-12-22T01:23:10;2.75;;;1.60;;
46116;SDS011;32591;48.102;11.772;2022-12-22T01:25:55;2.40;;;1.23;;
46116;SDS011;32591;48.102;11.772;2022-12-22T01:28:39;2.33;;;1.35;;
46116;SDS011;32591;48.102;11.772;2022-12-22T01:31:26;2.20;;;1.40;;
46116;SDS011;32591;48.102;11.772;2022-12-22T01:34:12;2.63;;;1.40;;
46116;SDS011;32591;48.102;11.772;2022-12-22T01:36:58;1.85;;;1.10;;
46116;SDS011;32591;48.102;11.772;2022-12-22T01:39:43;1.50;;;1.20;;
46116;SDS011;32591;48.102;11.772;2022-12-22T01:42:27;3.40;;;1.40;;
46116;SDS011;32591;48.102;11.772;2022-12-22T01:45:19;2.03;;;1.30;;
46116;SDS011;32591;48.102;11.772;2022-12-22T01:48:09;2.22;;;1.20;;
46116;SDS011;32591;48.102;11.772;2022-12-22T01:50:54;1.95;;;1.35;;
46116;SDS011;32591;48.102;11.772;2022-12-22T01:53:40;2.63;;;1.63;;
46116;SDS011;32591;48.102;11.772;2022-12-22T01:56:25;2.15;;;1.40;;
46116;SDS011;32591;48.102;11.772;2022-12-22T01:59:10;1.60;;;0.98;;
46116;SDS011;32591;48.102;11.772;2022-12-22T02:01:54;1.95;;;1.33;;
46116;SDS011;32591;48.102;11.772;2022-12-22T02:04:40;1.60;;;1.10;;
46116;SDS011;32591;48.102;11.772;2022-12-22T02:07:35;2.63;;;1.15;;
46116;SDS011;32591;48.102;11.772;2022-12-22T02:10:43;2.17;;;1.30;;
46116;SDS011;32591;48.102;11.772;2022-12-22T02:13:39;1.88;;;1.00;;
46116;SDS011;32591;48.102;11.772;2022-12-22T02:16:38;1.73;;;0.85;;
46116;SDS011;32591;48.102;11.772;2022-12-22T02:19:36;1.98;;;1.25;;
46116;SDS011;32591;48.102;11.772;2022-12-22T02:22:41;1.67;;;1.20;;
46116;SDS011;32591;48.102;11.772;2022-12-22T02:25:35;1.63;;;0.95;;
46116;SDS011;32591;48.102;11.772;2022-12-22T02:28:27;2.17;;;1.20;;
46116;SDS011;32591;48.102;11.772;2022-12-22T02:31:15;2.05;;;1.38;;
46116;SDS011;32591;48.102;11.772;2022-12-22T02:33:59;1.38;;;0.90;;
46116;SDS011;32591;48.102;11.772;2022-12-22T02:36:46;1.85;;;1.05;;
46116;SDS011;32591;48.102;11.772;2022-12-22T02:39:41;1.95;;;0.95;;
46116;SDS011;32591;48.102;11.772;2022-12-22T02:42:38;2.13;;;1.17;;
46116;SDS011;32591;48.102;11.772;2022-12-22T02:45:35;1.50;;;1.02;;
46116;SDS011;32591;48.102;11.772;2022-12-22T02:48:30;1.52;;;1.00;;
46116;SDS011;32591;48.102;11.772;2022-12-22T02:51:20;1.25;;;0.90;;
46116;SDS011;32591;48.102;11.772;2022-12-22T02:54:08;2.20;;;1.10;;
46116;SDS011;32591;48.102;11.772;2022-12-22T02:56:53;1.45;;;1.20;;
46116;SDS011;32591;48.102;11.772;2022-12-22T02:59:38;1.52;;;1.00;;
46116;SDS011;32591;48.102;11.772;2022-12-22T03:02:23;1.20;;;0.82;;
46116;SDS011;32591;48.102;11.772;2022-12-22T03:05:08;1.95;;;1.20;;
46116;SDS011;32591;48.102;11.772;2022-12-22T03:07:53;2.15;;;1.05;;
46116;SDS011;32591;48.102;11.772;2022-12-22T03:10:37;1.15;;;0.75;;
46116;SDS011;32591;48.102;11.772;2022-12-22T03:13:22;1.10;;;0.85;;
46116;SDS011;32591;48.102;11.772;2022-12-22T03:16:07;0.77;;;0.70;;
46116;SDS011;32591;48.102;11.772;2022-12-22T03:18:52;1.75;;;1.30;;
46116;SDS011;32591;48.102;11.772;2022-12-22T03:21:37;0.95;;;0.68;;
46116;SDS011;32591;48.102;11.772;2022-12-22T03:24:21;1.40;;;0.75;;
46116;SDS011;32591;48.102;11.772;2022-12-22T03:27:06;1.20;;;0.60;;
46116;SDS011;32591;48.102;11.772;2022-12-22T03:32:00;1.48;;;0.80;;
46116;SDS011;32591;48.102;11.772;2022-12-22T03:34:28;0.82;;;0.80;;
46116;SDS011;32591;48.102;11.772;2022-12-22T03:36:55;1.17;;;0.60;;
46116;SDS011;32591;48.102;11.772;2022-12-22T03:41:49;1.30;;;0.52;;
46116;SDS011;32591;48.102;11.772;2022-12-22T03:44:33;1.25;;;0.70;;
46116;SDS011;32591;48.102;11.772;2022-12-22T03:47:18;1.85;;;0.57;;
46116;SDS011;32591;48.102;11.772;2022-12-22T03:52:13;0.77;;;0.52;;
46116;SDS011;32591;48.102;11.772;2022-12-22T03:54:41;0.80;;;0.55;;
46116;SDS011;32591;48.102;11.772;2022-12-22T03:59:34;1.80;;;0.80;;
46116;SDS011;32591;48.102;11.772;2022-12-22T04:04:28;2.20;;;0.70;;
46116;SDS011;32591;48.102;11.772;2022-12-22T04:06:56;0.93;;;0.60;;
46116;SDS011;32591;48.102;11.772;2022-12-22T04:09:23;1.10;;;0.68;;
46116;SDS011;32591;48.102;11.772;2022-12-22T04:11:51;1.73;;;0.65;;
46116;SDS011;32591;48.102;11.772;2022-12-22T04:14:36;2.70;;;0.70;;
46116;SDS011;32591;48.102;11.772;2022-12-22T04:17:04;1.10;;;0.63;;
46116;SDS011;32591;48.102;11.772;2022-12-22T04:19:32;1.05;;;0.60;;
46116;SDS011;32591;48.102;11.772;2022-12-22T04:22:00;2.00;;;0.65;;
46116;SDS011;32591;48.102;11.772;2022-12-22T04:24:27;1.00;;;0.50;;
46116;SDS011;32591;48.102;11.772;2022-12-22T04:29:21;1.15;;;0.50;;
46116;SDS011;32591;48.102;11.772;2022-12-22T04:34:15;2.38;;;0.90;;
46116;SDS011;32591;48.102;11.772;2022-12-22T04:39:10;0.73;;;0.52;;
46116;SDS011;32591;48.102;11.772;2022-12-22T04:41:37;1.15;;;0.80;;
46116;SDS011;32591;48.102;11.772;2022-12-22T04:46:31;2.20;;;1.02;;
46116;SDS011;32591;48.102;11.772;2022-12-22T04:48:58;1.35;;;0.90;;
46116;SDS011;32591;48.102;11.772;2022-12-22T04:51:25;1.95;;;0.95;;
46116;SDS011;32591;48.102;11.772;2022-12-22T04:53:52;0.50;;;0.50;;
46116;SDS011;32591;48.102;11.772;2022-12-22T04:56:21;1.35;;;0.65;;
46116;SDS011;32591;48.102;11.772;2022-12-22T04:58:48;0.90;;;0.52;;
46116;SDS011;32591;48.102;11.772;2022-12-22T05:01:16;1.25;;;0.70;;
46116;SDS011;32591;48.102;11.772;2022-12-22T05:03:44;0.93;;;0.80;;
46116;SDS011;32591;48.102;11.772;2022-12-22T05:06:12;1.25;;;0.70;;
46116;SDS011;32591;48.102;11.772;2022-12-22T05:08:39;1.95;;;0.88;;
46116;SDS011;32591;48.102;11.772;2022-12-22T05:11:06;1.90;;;1.13;;
46116;SDS011;32591;48.102;11.772;2022-12-22T05:13:35;1.92;;;0.80;;
46116;SDS011;32591;48.102;11.772;2022-12-22T05:16:03;1.13;;;0.45;;
46116;SDS011;32591;48.102;11.772;2022-12-22T05:18:31;1.33;;;0.85;;
46116;SDS011;32591;48.102;11.772;2022-12-22T05:21:00;2.58;;;1.17;;
46116;SDS011;32591;48.102;11.772;2022-12-22T05:23:29;3.95;;;1.38;;
46116;SDS011;32591;48.102;11.772;2022-12-22T05:28:23;1.00;;;0.90;;
46116;SDS011;32591;48.102;11.772;2022-12-22T05:30:51;1.77;;;0.70;;
46116;SDS011;32591;48.102;11.772;2022-12-22T05:33:18;1.10;;;0.90;;
46116;SDS011;32591;48.102;11.772;2022-12-22T05:35:45;1.50;;;0.80;;
46116;SDS011;32591;48.102;11.772;2022-12-22T05:40:39;1.48;;;0.70;;
46116;SDS011;32591;48.102;11.772;2022-12-22T05:43:06;2.63;;;0.73;;
46116;SDS011;32591;48.102;11.772;2022-12-22T05:45:34;2.17;;;0.60;;
46116;SDS011;32591;48.102;11.772;2022-12-22T05:48:02;1.98;;;0.88;;
46116;SDS011;32591;48.102;11.772;2022-12-22T05:50:30;1.33;;;0.80;;
46116;SDS011;32591;48.102;11.772;2022-12-22T05:52:57;1.77;;;0.77;;
46116;SDS011;32591;48.102;11.772;2022-12-22T05:55:24;1.08;;;0.77;;
46116;SDS011;32591;48.102;11.772;2022-12-22T05:57:51;1.00;;;0.70;;
46116;SDS011;32591;48.102;11.772;2022-12-22T06:00:19;2.65;;;1.15;;
46116;SDS011;32591;48.102;11.772;2022-12-22T06:02:47;3.20;;;0.88;;
46116;SDS011;32591;48.102;11.772;2022-12-22T06:05:15;4.30;;;0.90;;
46116;SDS011;32591;48.102;11.772;2022-12-22T06:07:42;3.15;;;0.90;;
46116;SDS011;32591;48.102;11.772;2022-12-22T06:10:09;1.50;;;0.65;;
46116;SDS011;32591;48.102;11.772;2022-12-22T06:12:38;3.08;;;1.25;;
46116;SDS011;32591;48.102;11.772;2022-12-22T06:15:07;1.10;;;0.70;;
46116;SDS011;32591;48.102;11.772;2022-12-22T06:17:37;0.82;;;0.57;;
46116;SDS011;32591;48.102;11.772;2022-12-22T06:20:04;0.82;;;0.60;;
46116;SDS011;32591;48.102;11.772;2022-12-22T06:22:34;1.67;;;0.80;;
46116;SDS011;32591;48.102;11.772;2022-12-22T06:25:01;2.67;;;0.95;;
46116;SDS011;32591;48.102;11.772;2022-12-22T06:27:29;1.83;;;0.85;;
46116;SDS011;32591;48.102;11.772;2022-12-22T06:32:24;3.85;;;1.10;;
46116;SDS011;32591;48.102;11.772;2022-12-22T06:34:50;3.60;;;1.50;;
46116;SDS011;32591;48.102;11.772;2022-12-22T06:39:45;2.63;;;1.60;;
46116;SDS011;32591;48.102;11.772;2022-12-22T06:42:12;2.03;;;1.00;;
46116;SDS011;32591;48.102;11.772;2022-12-22T06:44:57;3.30;;;1.30;;
46116;SDS011;32591;48.102;11.772;2022-12-22T06:49:51;4.05;;;1.60;;
46116;SDS011;32591;48.102;11.772;2022-12-22T06:52:18;3.85;;;1.80;;
46116;SDS011;32591;48.102;11.772;2022-12-22T06:57:13;2.08;;;0.90;;
46116;SDS011;32591;48.102;11.772;2022-12-22T06:59:39;1.65;;;0.80;;
46116;SDS011;32591;48.102;11.772;2022-12-22T07:02:08;2.38;;;0.95;;
46116;SDS011;32591;48.102;11.772;2022-12-22T07:04:36;0.85;;;0.55;;
46116;SDS011;32591;48.102;11.772;2022-12-22T07:07:03;4.32;;;0.75;;
46116;SDS011;32591;48.102;11.772;2022-12-22T07:09:30;1.67;;;0.80;;
46116;SDS011;32591;48.102;11.772;2022-12-22T07:11:58;1.95;;;0.75;;
46116;SDS011;32591;48.102;11.772;2022-12-22T07:14:25;1.85;;;0.95;;
46116;SDS011;32591;48.102;11.772;2022-12-22T07:19:19;2.78;;;1.05;;
46116;SDS011;32591;48.102;11.772;2022-12-22T07:21:46;0.45;;;0.45;;
46116;SDS011;32591;48.102;11.772;2022-12-22T07:24:15;3.03;;;0.93;;
46116;SDS011;32591;48.102;11.772;2022-12-22T07:26:47;2.20;;;0.73;;
46116;SDS011;32591;48.102;11.772;2022-12-22T07:29:16;0.75;;;0.65;;
46116;SDS011;32591;48.102;11.772;2022-12-22T07:31:43;2.25;;;1.00;;
46116;SDS011;32591;48.102;11.772;2022-12-22T07:34:11;3.22;;;0.90;;
46116;SDS011;32591;48.102;11.772;2022-12-22T07:36:38;2.63;;;1.00;;
46116;SDS011;32591;48.102;11.772;2022-12-22T07:39:06;1.20;;;0.80;;
46116;SDS011;32591;48.102;11.772;2022-12-22T07:41:33;0.77;;;0.70;;
46116;SDS011;32591;48.102;11.772;2022-12-22T07:44:19;3.38;;;0.95;;
46116;SDS011;32591;48.102;11.772;2022-12-22T07:46:46;2.75;;;1.40;;
46116;SDS011;32591;48.102;11.772;2022-12-22T07:49:13;4.57;;;1.42;;
46116;SDS011;32591;48.102;11.772;2022-12-22T07:51:58;3.72;;;1.42;;
46116;SDS011;32591;48.102;11.772;2022-12-22T07:54:26;3.55;;;1.30;;
46116;SDS011;32591;48.102;11.772;2022-12-22T07:56:53;2.28;;;1.25;;
46116;SDS011;32591;48.102;11.772;2022-12-22T07:59:22;2.05;;;1.30;;
46116;SDS011;32591;48.102;11.772;2022-12-22T08:01:49;4.53;;;1.20;;
46116;SDS011;32591;48.102;11.772;2022-12-22T08:04:16;5.28;;;1.40;;
46116;SDS011;32591;48.102;11.772;2022-12-22T08:06:43;1.50;;;1.00;;
46116;SDS011;32591;48.102;11.772;2022-12-22T08:09:12;2.58;;;1.42;;
46116;SDS011;32591;48.102;11.772;2022-12-22T08:11:41;2.88;;;1.02;;
46116;SDS011;32591;48.102;11.772;2022-12-22T08:14:08;1.88;;;1.10;;
46116;SDS011;32591;48.102;11.772;2022-12-22T08:16:36;1.63;;;0.90;;
46116;SDS011;32591;48.102;11.772;2022-12-22T08:19:03;2.08;;;0.65;;
46116;SDS011;32591;48.102;11.772;2022-12-22T08:21:30;1.90;;;0.80;;
46116;SDS011;32591;48.102;11.772;2022-12-22T08:26:25;1.15;;;0.68;;
46116;SDS011;32591;48.102;11.772;2022-12-22T08:28:57;2.58;;;0.70;;
46116;SDS011;32591;48.102;11.772;2022-12-22T08:31:29;1.17;;;0.80;;
46116;SDS011;32591;48.102;11.772;2022-12-22T08:33:58;4.10;;;1.02;;
46116;SDS011;32591;48.102;11.772;2022-12-22T08:36:29;1.58;;;0.85;;
46116;SDS011;32591;48.102;11.772;2022-12-22T08:38:59;1.90;;;0.85;;
46116;SDS011;32591;48.102;11.772;2022-12-22T08:41:27;2.58;;;1.10;;
46116;SDS011;32591;48.102;11.772;2022-12-22T08:44:12;1.48;;;0.60;;
46116;SDS011;32591;48.102;11.772;2022-12-22T08:46:39;5.20;;;0.98;;
46116;SDS011;32591;48.102;11.772;2022-12-22T08:49:08;1.42;;;0.95;;
46116;SDS011;32591;48.102;11.772;2022-12-22T08:51:36;2.58;;;0.70;;
46116;SDS011;32591;48.102;11.772;2022-12-22T08:54:03;2.92;;;0.90;;
46116;SDS011;32591;48.102;11.772;2022-12-22T08:56:30;1.90;;;0.70;;
46116;SDS011;32591;48.102;11.772;2022-12-22T08:58:57;3.35;;;0.77;;
46116;SDS011;32591;48.102;11.772;2022-12-22T09:01:29;1.35;;;0.68;;
46116;SDS011;32591;48.102;11.772;2022-12-22T09:03:57;2.10;;;1.38;;
46116;SDS011;32591;48.102;11.772;2022-12-22T09:06:26;4.28;;;0.93;;
46116;SDS011;32591;48.102;11.772;2022-12-22T09:08:54;2.25;;;0.80;;
46116;SDS011;32591;48.102;11.772;2022-12-22T09:11:23;2.55;;;0.80;;
46116;SDS011;32591;48.102;11.772;2022-12-22T09:13:50;2.85;;;0.93;;
46116;SDS011;32591;48.102;11.772;2022-12-22T09:16:20;3.22;;;0.93;;
46116;SDS011;32591;48.102;11.772;2022-12-22T09:18:48;3.30;;;0.75;;
46116;SDS011;32591;48.102;11.772;2022-12-22T09:21:15;2.83;;;0.80;;
46116;SDS011;32591;48.102;11.772;2022-12-22T09:23:44;3.22;;;1.10;;
46116;SDS011;32591;48.102;11.772;2022-12-22T09:26:12;4.90;;;1.35;;
46116;SDS011;32591;48.102;11.772;2022-12-22T09:28:41;3.78;;;1.15;;
46116;SDS011;32591;48.102;11.772;2022-12-22T09:31:08;2.00;;;0.77;;
46116;SDS011;32591;48.102;11.772;2022-12-22T09:33:38;2.25;;;0.70;;
46116;SDS011;32591;48.102;11.772;2022-12-22T09:36:05;2.15;;;0.82;;
46116;SDS011;32591;48.102;11.772;2022-12-22T09:38:34;3.00;;;0.68;;
46116;SDS011;32591;48.102;11.772;2022-12-22T09:41:07;1.15;;;0.85;;
46116;SDS011;32591;48.102;11.772;2022-12-22T09:43:34;3.22;;;0.60;;
46116;SDS011;32591;48.102;11.772;2022-12-22T09:46:02;3.03;;;0.77;;
46116;SDS011;32591;48.102;11.772;2022-12-22T09:48:32;2.30;;;1.50;;
46116;SDS011;32591;48.102;11.772;2022-12-22T09:51:02;3.28;;;0.90;;
46116;SDS011;32591;48.102;11.772;2022-12-22T09:53:29;2.05;;;0.55;;
46116;SDS011;32591;48.102;11.772;2022-12-22T09:55:57;2.80;;;0.93;;
46116;SDS011;32591;48.102;11.772;2022-12-22T09:58:26;3.20;;;1.23;;
46116;SDS011;32591;48.102;11.772;2022-12-22T10:00:58;3.03;;;0.77;;
46116;SDS011;32591;48.102;11.772;2022-12-22T10:03:41;2.30;;;0.65;;
46116;SDS011;32591;48.102;11.772;2022-12-22T10:06:13;2.67;;;0.90;;
46116;SDS011;32591;48.102;11.772;2022-12-22T10:08:45;2.40;;;1.08;;
46116;SDS011;32591;48.102;11.772;2022-12-22T10:11:13;6.57;;;1.17;;
46116;SDS011;32591;48.102;11.772;2022-12-22T10:13:45;2.55;;;0.95;;
46116;SDS011;32591;48.102;11.772;2022-12-22T10:16:19;2.25;;;0.98;;
46116;SDS011;32591;48.102;11.772;2022-12-22T10:18:59;3.75;;;0.70;;
46116;SDS011;32591;48.102;11.772;2022-12-22T10:21:33;1.90;;;0.80;;
46116;SDS011;32591;48.102;11.772;2022-12-22T10:24:12;4.05;;;0.70;;
46116;SDS011;32591;48.102;11.772;2022-12-22T10:26:41;3.67;;;1.13;;
46116;SDS011;32591;48.102;11.772;2022-12-22T10:29:11;1.73;;;0.65;;
46116;SDS011;32591;48.102;11.772;2022-12-22T10:31:54;1.88;;;0.80;;
46116;SDS011;32591;48.102;11.772;2022-12-22T10:34:24;1.20;;;0.60;;
46116;SDS011;32591;48.102;11.772;2022-12-22T10:36:54;2.92;;;1.00;;
46116;SDS011;32591;48.102;11.772;2022-12-22T10:39:24;3.80;;;0.98;;
46116;SDS011;32591;48.102;11.772;2022-12-22T10:41:54;2.22;;;1.10;;
46116;SDS011;32591;48.102;11.772;2022-12-22T10:44:28;3.13;;;0.88;;
46116;SDS011;32591;48.102;11.772;2022-12-22T10:46:58;1.70;;;0.70;;
46116;SDS011;32591;48.102;11.772;2022-12-22T10:49:37;1.63;;;0.80;;
46116;SDS011;32591;48.102;11.772;2022-12-22T10:52:09;3.35;;;0.85;;
46116;SDS011;32591;48.102;11.772;2022-12-22T10:54:38;2.72;;;1.13;;
46116;SDS011;32591;48.102;11.772;2022-12-22T10:57:19;2.38;;;0.70;;
46116;SDS011;32591;48.102;11.772;2022-12-22T10:59:56;2.72;;;0.85;;
46116;SDS011;32591;48.102;11.772;2022-12-22T11:02:27;2.45;;;0.88;;
46116;SDS011;32591;48.102;11.772;2022-12-22T11:05:02;2.47;;;0.90;;
46116;SDS011;32591;48.102;11.772;2022-12-22T11:07:32;4.28;;;0.77;;
46116;SDS011;32591;48.102;11.772;2022-12-22T11:10:06;1.58;;;0.80;;
46116;SDS011;32591;48.102;11.772;2022-12-22T11:12:47;4.72;;;1.00;;
46116;SDS011;32591;48.102;11.772;2022-12-22T11:15:35;2.40;;;0.80;;
46116;SDS011;32591;48.102;11.772;2022-12-22T11:18:15;1.67;;;0.57;;
46116;SDS011;32591;48.102;11.772;2022-12-22T11:21:00;2.08;;;0.68;;
46116;SDS011;32591;48.102;11.772;2022-12-22T11:23:32;1.40;;;0.65;;
46116;SDS011;32591;48.102;11.772;2022-12-22T11:26:08;2.33;;;1.20;;
46116;SDS011;32591;48.102;11.772;2022-12-22T11:28:49;3.00;;;0.82;;
46116;SDS011;32591;48.102;11.772;2022-12-22T11:34:31;7.28;;;1.52;;
46116;SDS011;32591;48.102;11.772;2022-12-22T11:37:22;1.70;;;0.60;;
46116;SDS011;32591;48.102;11.772;2022-12-22T11:39:57;4.25;;;1.10;;
46116;SDS011;32591;48.102;11.772;2022-12-22T11:42:46;3.95;;;1.20;;
46116;SDS011;32591;48.102;11.772;2022-12-22T11:45:33;3.28;;;0.80;;
46116;SDS011;32591;48.102;11.772;2022-12-22T11:48:12;2.08;;;0.95;;
46116;SDS011;32591;48.102;11.772;2022-12-22T11:50:55;3.88;;;1.17;;
46116;SDS011;32591;48.102;11.772;2022-12-22T11:53:39;4.95;;;1.23;;
46116;SDS011;32591;48.102;11.772;2022-12-22T11:56:28;5.28;;;1.13;;
46116;SDS011;32591;48.102;11.772;2022-12-22T11:59:06;4.53;;;1.23;;
46116;SDS011;32591;48.102;11.772;2022-12-22T12:01:59;4.47;;;1.10;;
46116;SDS011;32591;48.102;11.772;2022-12-22T12:05:04;4.95;;;1.30;;
46116;SDS011;32591;48.102;11.772;2022-12-22T12:08:08;4.28;;;0.77;;
46116;SDS011;32591;48.102;11.772;2022-12-22T12:10:47;3.58;;;0.95;;
46116;SDS011;32591;48.102;11.772;2022-12-22T12:13:22;6.93;;;1.33;;
46116;SDS011;32591;48.102;11.772;2022-12-22T12:16:00;2.92;;;1.60;;
46116;SDS011;32591;48.102;11.772;2022-12-22T12:18:45;4.82;;;0.93;;
46116;SDS011;32591;48.102;11.772;2022-12-22T12:21:35;3.83;;;0.85;;
46116;SDS011;32591;48.102;11.772;2022-12-22T12:27:05;2.55;;;1.42;;
46116;SDS011;32591;48.102;11.772;2022-12-22T12:29:48;5.57;;;1.45;;
46116;SDS011;32591;48.102;11.772;2022-12-22T12:32:22;3.53;;;1.23;;
46116;SDS011;32591;48.102;11.772;2022-12-22T12:34:56;3.70;;;1.00;;
46116;SDS011;32591;48.102;11.772;2022-12-22T12:37:33;7.05;;;1.00;;
46116;SDS011;32591;48.102;11.772;2022-12-22T12:40:06;4.50;;;1.17;;
46116;SDS011;32591;48.102;11.772;2022-12-22T12:43:04;8.15;;;1.83;;
46116;SDS011;32591;48.102;11.772;2022-12-22T12:45:33;3.80;;;1.63;;
46116;SDS011;32591;48.102;11.772;2022-12-22T12:57:22;5.25;;;1.33;;
46116;SDS011;32591;48.102;11.772;2022-12-22T12:59:53;5.63;;;0.95;;
46116;SDS011;32591;48.102;11.772;2022-12-22T13:02:31;6.05;;;1.15;;
46116;SDS011;32591;48.102;11.772;2022-12-22T13:05:03;3.17;;;0.95;;
46116;SDS011;32591;48.102;11.772;2022-12-22T13:08:04;4.53;;;2.03;;
46116;SDS011;32591;48.102;11.772;2022-12-22T13:10:41;7.10;;;1.70;;
46116;SDS011;32591;48.102;11.772;2022-12-22T13:16:22;5.72;;;1.02;;
46116;SDS011;32591;48.102;11.772;2022-12-22T13:19:12;4.00;;;1.00;;
46116;SDS011;32591;48.102;11.772;2022-12-22T13:21:48;2.37;;;1.10;;
46116;SDS011;32591;48.102;11.772;2022-12-22T13:24:25;2.05;;;0.75;;
46116;SDS011;32591;48.102;11.772;2022-12-22T13:27:01;5.10;;;0.75;;
46116;SDS011;32591;48.102;11.772;2022-12-22T13:29:35;3.15;;;1.27;;
46116;SDS011;32591;48.102;11.772;2022-12-22T13:32:22;2.70;;;1.05;;
46116;SDS011;32591;48.102;11.772;2022-12-22T13:34:53;3.13;;;0.95;;
46116;SDS011;32591;48.102;11.772;2022-12-22T13:37:29;5.30;;;1.08;;
46116;SDS011;32591;48.102;11.772;2022-12-22T13:40:05;4.70;;;0.98;;
46116;SDS011;32591;48.102;11.772;2022-12-22T13:42:38;5.10;;;1.00;;
46116;SDS011;32591;48.102;11.772;2022-12-22T13:45:12;4.28;;;0.90;;
46116;SDS011;32591;48.102;11.772;2022-12-22T13:47:44;6.63;;;1.48;;
46116;SDS011;32591;48.102;11.772;2022-12-22T13:50:20;4.28;;;1.20;;
46116;SDS011;32591;48.102;11.772;2022-12-22T13:52:50;5.85;;;1.48;;
46116;SDS011;32591;48.102;11.772;2022-12-22T13:55:22;3.17;;;0.95;;
46116;SDS011;32591;48.102;11.772;2022-12-22T13:57:53;3.42;;;1.08;;
46116;SDS011;32591;48.102;11.772;2022-12-22T14:00:31;4.47;;;1.10;;
46116;SDS011;32591;48.102;11.772;2022-12-22T14:02:59;4.65;;;1.58;;
46116;SDS011;32591;48.102;11.772;2022-12-22T14:05:29;4.93;;;1.10;;
46116;SDS011;32591;48.102;11.772;2022-12-22T14:08:02;8.23;;;1.80;;
46116;SDS011;32591;48.102;11.772;2022-12-22T14:10:32;6.13;;;1.90;;
46116;SDS011;32591;48.102;11.772;2022-12-22T14:13:10;7.45;;;1.45;;
46116;SDS011;32591;48.102;11.772;2022-12-22T14:15:40;5.10;;;1.20;;
46116;SDS011;32591;48.102;11.772;2022-12-22T14:18:11;4.82;;;1.90;;
46116;SDS011;32591;48.102;11.772;2022-12-22T14:20:41;6.13;;;1.30;;
46116;SDS011;32591;48.102;11.772;2022-12-22T14:23:11;4.13;;;1.15;;
46116;SDS011;32591;48.102;11.772;2022-12-22T14:25:45;7.63;;;1.80;;
46116;SDS011;32591;48.102;11.772;2022-12-22T14:28:15;5.70;;;1.63;;
46116;SDS011;32591;48.102;11.772;2022-12-22T14:30:47;8.48;;;2.10;;
46116;SDS011;32591;48.102;11.772;2022-12-22T14:33:17;8.05;;;1.58;;
46116;SDS011;32591;48.102;11.772;2022-12-22T14:36:04;6.32;;;1.20;;
46116;SDS011;32591;48.102;11.772;2022-12-22T14:38:40;7.60;;;1.40;;
46116;SDS011;32591;48.102;11.772;2022-12-22T14:41:10;10.52;;;2.55;;
46116;SDS011;32591;48.102;11.772;2022-12-22T14:44:04;7.22;;;1.90;;
46116;SDS011;32591;48.102;11.772;2022-12-22T14:46:32;7.53;;;1.70;;
46116;SDS011;32591;48.102;11.772;2022-12-22T14:48:59;8.13;;;1.70;;
46116;SDS011;32591;48.102;11.772;2022-12-22T14:51:26;5.22;;;1.42;;
46116;SDS011;32591;48.102;11.772;2022-12-22T14:53:54;6.55;;;2.35;;
46116;SDS011;32591;48.102;11.772;2022-12-22T14:56:24;5.32;;;1.55;;
46116;SDS011;32591;48.102;11.772;2022-12-22T14:59:05;5.10;;;2.00;;
46116;SDS011;32591;48.102;11.772;2022-12-22T15:01:36;5.25;;;1.40;;
46116;SDS011;32591;48.102;11.772;2022-12-22T15:04:05;7.15;;;1.67;;
46116;SDS011;32591;48.102;11.772;2022-12-22T15:06:41;7.20;;;1.55;;
46116;SDS011;32591;48.102;11.772;2022-12-22T15:09:24;5.50;;;1.30;;
46116;SDS011;32591;48.102;11.772;2022-12-22T15:11:56;7.93;;;2.13;;
46116;SDS011;32591;48.102;11.772;2022-12-22T15:14:33;12.20;;;2.33;;
46116;SDS011;32591;48.102;11.772;2022-12-22T15:17:02;7.18;;;1.42;;
46116;SDS011;32591;48.102;11.772;2022-12-22T15:19:32;10.07;;;1.83;;
46116;SDS011;32591;48.102;11.772;2022-12-22T15:22:00;9.32;;;2.25;;
46116;SDS011;32591;48.102;11.772;2022-12-22T15:24:28;7.47;;;1.77;;
46116;SDS011;32591;48.102;11.772;2022-12-22T15:26:55;11.68;;;2.00;;
46116;SDS011;32591;48.102;11.772;2022-12-22T15:29:22;6.80;;;1.63;;
46116;SDS011;32591;48.102;11.772;2022-12-22T15:31:50;7.60;;;1.40;;
46116;SDS011;32591;48.102;11.772;2022-12-22T15:34:19;8.13;;;1.73;;
46116;SDS011;32591;48.102;11.772;2022-12-22T15:36:50;7.55;;;1.98;;
46116;SDS011;32591;48.102;11.772;2022-12-22T15:39:17;9.35;;;1.98;;
46116;SDS011;32591;48.102;11.772;2022-12-22T15:41:46;7.82;;;1.75;;
46116;SDS011;32591;48.102;11.772;2022-12-22T15:44:13;9.75;;;2.33;;
46116;SDS011;32591;48.102;11.772;2022-12-22T15:46:41;10.65;;;1.85;;
46116;SDS011;32591;48.102;11.772;2022-12-22T15:49:13;6.72;;;1.75;;
46116;SDS011;32591;48.102;11.772;2022-12-22T15:51:44;8.52;;;1.70;;
46116;SDS011;32591;48.102;11.772;2022-12-22T15:54:15;5.57;;;2.17;;
46116;SDS011;32591;48.102;11.772;2022-12-22T15:56:43;7.43;;;2.40;;
46116;SDS011;32591;48.102;11.772;2022-12-22T15:59:13;3.97;;;1.50;;
46116;SDS011;32591;48.102;11.772;2022-12-22T16:01:42;8.73;;;2.15;;
46116;SDS011;32591;48.102;11.772;2022-12-22T16:04:09;10.00;;;1.77;;
46116;SDS011;32591;48.102;11.772;2022-12-22T16:06:38;10.60;;;2.15;;
46116;SDS011;32591;48.102;11.772;2022-12-22T16:09:05;4.28;;;1.38;;
46116;SDS011;32591;48.102;11.772;2022-12-22T16:11:37;5.72;;;2.08;;
46116;SDS011;32591;48.102;11.772;2022-12-22T16:14:05;11.85;;;1.60;;
46116;SDS011;32591;48.102;11.772;2022-12-22T16:16:32;6.72;;;1.73;;
46116;SDS011;32591;48.102;11.772;2022-12-22T16:18:59;7.85;;;1.95;;